createdAt,value
2019-03-06T00:01:07.511Z,9.10
2019-03-06T00:03:36.822Z,13.05
2019-03-06T00:06:06.321Z,14.05
2019-03-06T00:08:35.926Z,10.48
2019-03-06T00:11:05.291Z,10.98
2019-03-06T00:13:34.717Z,14.55
2019-03-06T00:16:04.029Z,10.05
2019-03-06T00:18:33.332Z,8.73
2019-03-06T00:21:02.689Z,9.65
2019-03-06T00:23:31.997Z,12.25
2019-03-06T00:26:01.294Z,9.35
2019-03-06T00:28:30.666Z,13.25
2019-03-06T00:31:00.239Z,11.93
2019-03-06T00:33:29.838Z,10.28
2019-03-06T00:36:00.861Z,10.95
2019-03-06T00:38:30.161Z,7.83
2019-03-06T00:41:04.096Z,13.80
2019-03-06T00:43:33.439Z,8.63
2019-03-06T00:46:02.739Z,9.13
2019-03-06T00:48:32.212Z,9.75
2019-03-06T00:51:01.583Z,8.05
2019-03-06T00:53:30.940Z,8.45
2019-03-06T00:56:00.256Z,11.65
2019-03-06T00:58:29.912Z,9.58
2019-03-06T01:00:59.517Z,10.18
2019-03-06T01:03:28.821Z,11.05
2019-03-06T01:05:58.279Z,7.95
2019-03-06T01:08:27.654Z,11.28
2019-03-06T01:10:57.021Z,7.75
2019-03-06T01:13:26.390Z,10.45
2019-03-06T01:15:55.743Z,9.85
2019-03-06T01:18:26.478Z,10.05
2019-03-06T01:20:55.910Z,11.63
2019-03-06T01:23:25.215Z,10.28
2019-03-06T01:25:54.510Z,8.25
2019-03-06T01:28:23.878Z,10.18
2019-03-06T01:30:53.463Z,13.08
2019-03-06T01:33:36.910Z,11.85
2019-03-06T01:36:16.691Z,10.18
2019-03-06T01:38:50.351Z,10.00
2019-03-06T01:41:21.605Z,10.00
2019-03-06T01:44:02.172Z,9.45
2019-03-06T01:46:31.800Z,9.03
2019-03-06T01:49:01.390Z,14.10
2019-03-06T01:51:30.997Z,11.28
2019-03-06T01:54:00.306Z,11.57
2019-03-06T01:56:29.607Z,9.88
2019-03-06T01:58:59.023Z,9.85
2019-03-06T02:01:28.588Z,13.48
2019-03-06T02:03:57.898Z,12.70
2019-03-06T02:06:27.317Z,12.90
2019-03-06T02:08:56.620Z,10.60
2019-03-06T02:11:25.924Z,10.03
2019-03-06T02:13:55.595Z,11.00
2019-03-06T02:16:24.897Z,9.38
2019-03-06T02:18:54.206Z,10.28
2019-03-06T02:21:23.557Z,10.18
2019-03-06T02:23:52.863Z,12.15
2019-03-06T02:26:22.216Z,10.82
2019-03-06T02:28:52.050Z,12.63
2019-03-06T02:31:21.366Z,10.35
2019-03-06T02:33:50.730Z,11.97
2019-03-06T02:36:20.137Z,11.12
2019-03-06T02:38:49.440Z,11.88
2019-03-06T02:41:19.015Z,12.98
2019-03-06T02:43:48.643Z,11.03
2019-03-06T02:46:17.961Z,11.05
2019-03-06T02:48:47.262Z,15.70
2019-03-06T02:51:16.614Z,11.43
2019-03-06T02:53:45.928Z,10.23
2019-03-06T02:56:15.223Z,10.60
2019-03-06T02:58:46.289Z,11.75
2019-03-06T03:01:29.003Z,11.65
2019-03-06T03:04:03.431Z,10.18
2019-03-06T03:06:34.661Z,14.23
2019-03-06T03:09:06.100Z,12.28
2019-03-06T03:11:35.500Z,11.68
2019-03-06T03:14:04.801Z,11.08
2019-03-06T03:16:34.111Z,13.03
2019-03-06T03:19:03.462Z,12.65
2019-03-06T03:21:32.774Z,14.20
2019-03-06T03:24:02.078Z,14.73
2019-03-06T03:26:31.493Z,13.22
2019-03-06T03:29:00.804Z,15.10
2019-03-06T03:31:30.424Z,13.18
2019-03-06T03:33:59.822Z,14.47
2019-03-06T03:36:29.357Z,14.70
2019-03-06T03:38:58.655Z,17.32
2019-03-06T03:41:28.016Z,12.88
2019-03-06T03:43:57.523Z,14.78
2019-03-06T03:46:26.832Z,14.53
2019-03-06T03:48:56.169Z,12.73
2019-03-06T03:51:25.528Z,13.40
2019-03-06T03:53:54.828Z,14.15
2019-03-06T03:56:24.426Z,14.03
2019-03-06T03:58:53.833Z,13.38
2019-03-06T04:01:23.127Z,16.00
2019-03-06T04:03:52.847Z,13.48
2019-03-06T04:06:22.474Z,14.63
2019-03-06T04:08:52.100Z,13.75
2019-03-06T04:11:21.503Z,15.32
2019-03-06T04:13:50.865Z,13.22
2019-03-06T04:16:20.157Z,15.98
2019-03-06T04:18:49.520Z,14.38
2019-03-06T04:21:18.825Z,14.63
2019-03-06T04:23:48.142Z,15.93
2019-03-06T04:26:17.499Z,15.15
2019-03-06T04:28:47.111Z,15.72
2019-03-06T04:31:16.792Z,16.52
2019-03-06T04:33:46.146Z,14.65
2019-03-06T04:36:15.450Z,16.62
2019-03-06T04:38:44.753Z,18.32
2019-03-06T04:41:14.183Z,17.15
2019-03-06T04:43:43.919Z,16.45
2019-03-06T04:46:13.309Z,14.70
2019-03-06T04:48:42.709Z,15.43
2019-03-06T04:51:13.180Z,15.80
2019-03-06T04:53:42.699Z,14.28
2019-03-06T04:56:12.363Z,13.32
2019-03-06T04:58:41.979Z,16.02
2019-03-06T05:01:11.277Z,15.90
2019-03-06T05:03:40.644Z,14.70
2019-03-06T05:06:10.004Z,14.93
2019-03-06T05:08:39.311Z,16.07
2019-03-06T05:11:08.728Z,15.50
2019-03-06T05:13:38.290Z,18.27
2019-03-06T05:16:07.592Z,14.83
2019-03-06T05:18:40.463Z,17.20
2019-03-06T05:21:10.199Z,15.88
2019-03-06T05:23:39.798Z,21.90
2019-03-06T05:26:09.153Z,17.67
2019-03-06T05:28:38.791Z,15.10
2019-03-06T05:31:08.424Z,13.95
2019-03-06T05:33:37.780Z,16.37
2019-03-06T05:36:44.733Z,15.10
2019-03-06T05:39:14.404Z,15.88
2019-03-06T05:41:43.999Z,18.57
2019-03-06T05:44:13.303Z,14.93
2019-03-06T05:46:42.667Z,20.60
2019-03-06T05:49:12.043Z,16.60
2019-03-06T05:51:41.614Z,16.93
2019-03-06T05:54:10.960Z,16.75
2019-03-06T05:56:40.273Z,29.63
2019-03-06T05:59:09.922Z,19.25
2019-03-06T06:01:39.328Z,18.27
2019-03-06T06:04:08.938Z,14.20
2019-03-06T06:06:38.245Z,13.78
2019-03-06T06:09:07.672Z,14.00
2019-03-06T06:11:36.972Z,16.40
2019-03-06T06:14:06.280Z,14.73
2019-03-06T06:16:35.629Z,15.25
2019-03-06T06:19:04.938Z,12.75
2019-03-06T06:21:44.928Z,15.78
2019-03-06T06:24:14.289Z,15.35
2019-03-06T06:26:43.895Z,14.00
2019-03-06T06:29:16.275Z,14.87
2019-03-06T06:31:45.905Z,13.45
2019-03-06T06:34:15.292Z,16.10
2019-03-06T06:36:44.643Z,13.13
2019-03-06T06:39:14.281Z,13.78
2019-03-06T06:41:43.888Z,14.25
2019-03-06T06:44:13.235Z,14.40
2019-03-06T06:46:42.990Z,18.80
2019-03-06T06:49:12.304Z,17.35
2019-03-06T06:52:08.980Z,17.15
2019-03-06T06:55:03.008Z,13.68
2019-03-06T06:58:07.436Z,16.73
2019-03-06T07:01:06.287Z,16.67
2019-03-06T07:04:14.560Z,14.98
2019-03-06T07:06:48.194Z,13.13
2019-03-06T07:09:31.147Z,17.95
2019-03-06T07:12:02.148Z,14.47
2019-03-06T07:14:49.152Z,19.42
2019-03-06T07:17:20.106Z,16.00
2019-03-06T07:19:57.357Z,12.65
2019-03-06T07:22:34.334Z,15.60
2019-03-06T07:25:09.569Z,15.93
2019-03-06T07:27:56.773Z,15.08
2019-03-06T07:30:33.668Z,14.20
2019-03-06T07:33:21.608Z,13.93
2019-03-06T07:36:09.872Z,16.85
2019-03-06T07:38:39.455Z,19.48
2019-03-06T07:41:19.658Z,14.53
2019-03-06T07:43:53.504Z,16.00
2019-03-06T07:46:24.492Z,13.95
2019-03-06T07:48:56.245Z,13.90
2019-03-06T07:51:43.556Z,16.42
2019-03-06T07:54:14.785Z,16.50
2019-03-06T07:56:47.275Z,17.35
2019-03-06T07:59:16.633Z,13.90
2019-03-06T08:01:59.599Z,17.05
2019-03-06T08:04:28.956Z,19.30
2019-03-06T08:06:59.908Z,14.83
2019-03-06T08:09:29.342Z,13.58
2019-03-06T08:12:16.683Z,16.20
2019-03-06T08:14:50.454Z,16.25
2019-03-06T08:17:21.453Z,15.05
2019-03-06T08:20:01.577Z,13.83
2019-03-06T08:22:32.521Z,14.90
2019-03-06T08:25:03.469Z,16.42
2019-03-06T08:27:33.072Z,15.95
2019-03-06T08:30:03.064Z,14.28
2019-03-06T08:32:32.371Z,14.95
2019-03-06T08:35:01.783Z,15.80
2019-03-06T08:37:33.886Z,13.70
2019-03-06T08:40:04.158Z,15.30
2019-03-06T08:42:33.664Z,14.85
2019-03-06T08:45:04.304Z,14.73
2019-03-06T08:47:35.252Z,12.95
2019-03-06T08:50:12.295Z,16.17
2019-03-06T08:52:45.937Z,17.95
2019-03-06T08:55:29.137Z,12.70
2019-03-06T08:58:05.744Z,11.55
2019-03-06T09:00:37.056Z,12.73
2019-03-06T09:03:14.228Z,13.53
2019-03-06T09:05:45.365Z,11.12
2019-03-06T09:08:33.087Z,11.05
2019-03-06T09:11:04.087Z,14.68
2019-03-06T09:13:41.242Z,14.50
2019-03-06T09:16:12.415Z,10.18
2019-03-06T09:19:01.757Z,11.03
2019-03-06T09:21:35.523Z,13.78
2019-03-06T09:24:23.515Z,7.92
2019-03-06T09:26:54.753Z,9.18
2019-03-06T09:29:25.752Z,7.87
2019-03-06T09:32:11.993Z,9.28
2019-03-06T09:34:43.031Z,8.58
2019-03-06T09:37:14.091Z,10.00
2019-03-06T09:39:47.805Z,12.45
2019-03-06T09:42:37.086Z,11.12
2019-03-06T09:45:17.017Z,6.95
2019-03-06T09:47:48.731Z,7.35
2019-03-06T09:50:25.597Z,7.20
2019-03-06T09:53:03.004Z,7.75
2019-03-06T09:55:45.938Z,7.15
2019-03-06T09:58:19.641Z,6.22
2019-03-06T10:01:07.071Z,5.65
2019-03-06T10:03:56.832Z,6.42
2019-03-06T10:06:44.148Z,9.20
2019-03-06T10:09:24.417Z,9.93
2019-03-06T10:11:55.402Z,7.22
2019-03-06T10:14:42.771Z,8.45
2019-03-06T10:17:14.024Z,8.23
2019-03-06T10:19:47.698Z,11.35
2019-03-06T10:22:17.092Z,5.50
2019-03-06T10:24:46.738Z,7.28
2019-03-06T10:27:16.043Z,9.03
2019-03-06T10:29:45.633Z,5.37
2019-03-06T10:32:14.991Z,10.18
2019-03-06T10:34:44.300Z,7.85
2019-03-06T10:37:13.608Z,10.35
2019-03-06T10:39:43.433Z,9.10
2019-03-06T10:42:12.737Z,5.28
2019-03-06T10:44:42.616Z,7.55
2019-03-06T10:47:12.066Z,10.68
2019-03-06T10:49:41.388Z,6.70
2019-03-06T10:52:10.682Z,6.50
2019-03-06T10:54:44.631Z,6.35
2019-03-06T10:57:11.926Z,5.37
2019-03-06T10:59:41.707Z,10.38
2019-03-06T11:02:11.208Z,7.60
2019-03-06T11:04:42.631Z,7.08
2019-03-06T11:07:12.583Z,9.23
2019-03-06T11:09:42.219Z,6.67
2019-03-06T11:12:12.030Z,7.70
2019-03-06T11:14:41.335Z,7.08
2019-03-06T11:17:11.258Z,5.60
2019-03-06T11:19:40.834Z,8.50
2019-03-06T11:22:10.211Z,7.97
2019-03-06T11:24:39.691Z,9.50
2019-03-06T11:27:09.065Z,9.08
2019-03-06T11:29:38.502Z,9.58
2019-03-06T11:32:09.563Z,6.08
2019-03-06T11:34:39.115Z,8.08
2019-03-06T11:37:08.548Z,9.20
2019-03-06T11:39:37.899Z,7.72
2019-03-06T11:42:07.467Z,8.03
2019-03-06T11:44:36.847Z,10.65
2019-03-06T11:47:06.270Z,10.28
2019-03-06T11:49:36.343Z,10.15
2019-03-06T11:52:05.727Z,9.55
2019-03-06T11:54:35.358Z,6.80
2019-03-06T11:57:05.690Z,7.85
2019-03-06T11:59:38.102Z,8.85
2019-03-06T12:02:07.449Z,8.88
2019-03-06T12:04:36.841Z,12.70
2019-03-06T12:07:07.082Z,9.73
2019-03-06T12:09:36.503Z,6.20
2019-03-06T12:12:06.176Z,8.40
2019-03-06T12:14:35.808Z,6.72
2019-03-06T12:17:05.511Z,7.70
2019-03-06T12:19:35.217Z,6.10
2019-03-06T12:22:05.141Z,7.22
2019-03-06T12:24:34.722Z,9.40
2019-03-06T12:27:04.849Z,8.90
2019-03-06T12:29:34.155Z,6.53
2019-03-06T12:32:05.119Z,5.90
2019-03-06T12:34:34.427Z,10.78
2019-03-06T12:37:03.728Z,9.78
2019-03-06T12:39:33.093Z,10.15
2019-03-06T12:42:02.408Z,11.10
2019-03-06T12:44:31.792Z,12.68
2019-03-06T12:47:01.148Z,9.75
2019-03-06T12:49:30.463Z,12.98
2019-03-06T12:52:00.122Z,11.40
2019-03-06T12:54:29.490Z,9.48
2019-03-06T12:56:59.123Z,11.95
2019-03-06T12:59:28.807Z,10.85
2019-03-06T13:01:58.448Z,11.03
2019-03-06T13:04:28.168Z,8.98
2019-03-06T13:06:57.484Z,9.28
2019-03-06T13:09:26.932Z,8.75
2019-03-06T13:11:56.461Z,12.58
2019-03-06T13:14:30.497Z,11.48
2019-03-06T13:16:59.995Z,11.10
2019-03-06T13:19:29.596Z,10.93
2019-03-06T13:21:58.901Z,9.85
2019-03-06T13:24:28.331Z,9.15
2019-03-06T13:26:58.117Z,12.75
2019-03-06T13:29:27.405Z,9.85
2019-03-06T13:31:56.766Z,8.88
2019-03-06T13:34:27.729Z,7.45
2019-03-06T13:36:57.393Z,10.55
2019-03-06T13:39:26.925Z,8.98
2019-03-06T13:41:56.420Z,12.65
2019-03-06T13:44:25.728Z,8.68
2019-03-06T13:46:55.581Z,12.05
2019-03-06T13:49:25.051Z,7.78
2019-03-06T13:51:54.361Z,8.55
2019-03-06T13:54:23.740Z,6.37
2019-03-06T13:56:53.690Z,8.30
2019-03-06T13:59:23.179Z,7.72
2019-03-06T14:01:52.797Z,8.35
2019-03-06T14:04:22.104Z,6.95
2019-03-06T14:06:51.411Z,10.20
2019-03-06T14:09:20.836Z,10.10
2019-03-06T14:11:50.719Z,8.53
2019-03-06T14:14:20.084Z,7.30
2019-03-06T14:16:52.703Z,8.70
2019-03-06T14:19:22.147Z,8.45
2019-03-06T14:21:51.702Z,12.35
2019-03-06T14:24:21.467Z,9.40
2019-03-06T14:26:50.781Z,13.35
2019-03-06T14:29:20.165Z,13.95
2019-03-06T14:31:49.514Z,8.20
2019-03-06T14:34:18.894Z,13.40
2019-03-06T14:36:48.208Z,12.90
2019-03-06T14:39:27.092Z,7.17
2019-03-06T14:41:58.209Z,6.78
2019-03-06T14:44:27.496Z,8.23
2019-03-06T14:46:56.857Z,12.93
2019-03-06T14:49:26.306Z,8.80
2019-03-06T14:51:55.623Z,10.70
2019-03-06T14:54:25.307Z,6.53
2019-03-06T14:56:55.014Z,15.53
2019-03-06T14:59:24.785Z,7.62
2019-03-06T15:01:54.673Z,10.43
2019-03-06T15:04:23.975Z,7.45
2019-03-06T15:06:53.287Z,8.25
2019-03-06T15:09:25.695Z,8.20
2019-03-06T15:11:55.319Z,13.53
2019-03-06T15:14:24.629Z,11.97
2019-03-06T15:16:54.072Z,13.25
2019-03-06T15:19:23.720Z,10.45
2019-03-06T15:21:53.200Z,10.30
2019-03-06T15:24:22.626Z,9.25
2019-03-06T15:26:51.937Z,11.33
2019-03-06T15:29:21.538Z,8.63
2019-03-06T15:31:51.676Z,9.08
2019-03-06T15:34:21.116Z,10.53
2019-03-06T15:36:50.427Z,10.65
2019-03-06T15:39:32.085Z,11.50
2019-03-06T15:42:03.243Z,13.00
2019-03-06T15:44:32.926Z,12.95
2019-03-06T15:47:02.729Z,14.20
2019-03-06T15:49:32.211Z,13.55
2019-03-06T15:52:01.521Z,14.85
2019-03-06T15:54:31.257Z,16.07
2019-03-06T15:57:00.563Z,14.55
2019-03-06T15:59:30.218Z,12.93
2019-03-06T16:01:59.616Z,12.82
2019-03-06T16:04:29.262Z,10.35
2019-03-06T16:06:58.582Z,13.53
2019-03-06T16:09:27.957Z,11.85
2019-03-06T16:11:57.824Z,15.38
2019-03-06T16:14:27.210Z,11.97
2019-03-06T16:16:57.039Z,11.20
2019-03-06T16:19:26.574Z,10.78
2019-03-06T16:21:56.046Z,10.45
2019-03-06T16:24:25.423Z,13.93
2019-03-06T16:26:55.314Z,12.30
2019-03-06T16:29:24.820Z,9.85
2019-03-06T16:31:54.512Z,10.82
2019-03-06T16:34:24.067Z,7.00
2019-03-06T16:36:53.436Z,8.88
2019-03-06T16:39:23.506Z,7.92
2019-03-06T16:41:55.979Z,7.70
2019-03-06T16:44:25.533Z,12.80
2019-03-06T16:46:55.404Z,8.45
2019-03-06T16:49:25.213Z,8.15
2019-03-06T16:51:55.032Z,9.48
2019-03-06T16:54:24.556Z,8.45
2019-03-06T16:56:53.866Z,7.50
2019-03-06T16:59:23.560Z,10.23
2019-03-06T17:01:53.158Z,7.83
2019-03-06T17:04:22.814Z,8.73
2019-03-06T17:06:52.548Z,8.30
2019-03-06T17:09:22.565Z,8.13
2019-03-06T17:11:51.962Z,10.65
2019-03-06T17:14:21.353Z,7.80
2019-03-06T17:16:51.248Z,9.35
2019-03-06T17:19:21.015Z,7.47
2019-03-06T17:21:50.540Z,9.03
2019-03-06T17:24:21.095Z,10.38
2019-03-06T17:26:50.408Z,9.78
2019-03-06T17:29:22.555Z,9.38
2019-03-06T17:31:51.926Z,12.45
2019-03-06T17:34:21.587Z,13.38
2019-03-06T17:36:50.960Z,9.88
2019-03-06T17:39:20.824Z,8.85
2019-03-06T17:41:50.234Z,8.63
2019-03-06T17:44:19.804Z,9.50
2019-03-06T17:46:49.159Z,9.73
2019-03-06T17:49:18.606Z,12.07
2019-03-06T17:51:48.061Z,8.48
2019-03-06T17:54:17.730Z,11.83
2019-03-06T17:56:47.103Z,10.38
2019-03-06T17:59:16.409Z,10.18
2019-03-06T18:01:46.438Z,12.60
2019-03-06T18:04:16.038Z,7.85
2019-03-06T18:06:45.475Z,10.13
2019-03-06T18:09:15.167Z,10.98
2019-03-06T18:11:44.873Z,10.32
2019-03-06T18:14:14.484Z,9.60
2019-03-06T18:16:45.729Z,10.28
2019-03-06T18:19:15.164Z,10.35
2019-03-06T18:21:44.480Z,7.97
2019-03-06T18:24:13.937Z,9.98
2019-03-06T18:26:43.515Z,9.85
2019-03-06T18:29:13.288Z,10.63
2019-03-06T18:31:42.812Z,9.90
2019-03-06T18:34:12.289Z,8.60
2019-03-06T18:36:41.873Z,13.48
2019-03-06T18:39:13.710Z,8.43
2019-03-06T18:41:43.141Z,16.93
2019-03-06T18:44:12.955Z,7.92
2019-03-06T18:46:42.357Z,9.60
2019-03-06T18:49:11.663Z,9.05
2019-03-06T18:51:40.968Z,16.45
2019-03-06T18:54:10.335Z,10.50
2019-03-06T18:56:39.891Z,11.83
2019-03-06T18:59:09.379Z,11.28
2019-03-06T19:01:40.600Z,10.50
2019-03-06T19:04:09.849Z,7.55
2019-03-06T19:06:41.319Z,10.00
2019-03-06T19:09:11.119Z,9.80
2019-03-06T19:11:40.566Z,8.50
2019-03-06T19:14:09.940Z,10.82
2019-03-06T19:16:39.385Z,9.15
2019-03-06T19:19:08.976Z,9.65
2019-03-06T19:21:38.579Z,8.65
2019-03-06T19:24:07.922Z,8.18
2019-03-06T19:26:37.573Z,8.68
2019-03-06T19:29:06.895Z,9.25
2019-03-06T19:31:36.242Z,9.38
2019-03-06T19:34:05.555Z,11.40
2019-03-06T19:36:34.875Z,8.03
2019-03-06T19:39:06.059Z,8.55
2019-03-06T19:41:35.542Z,8.43
2019-03-06T19:44:05.052Z,9.03
2019-03-06T19:46:34.423Z,12.23
2019-03-06T19:49:03.779Z,9.95
2019-03-06T19:51:33.462Z,11.22
2019-03-06T19:54:02.865Z,9.58
2019-03-06T19:56:32.458Z,10.20
2019-03-06T19:59:01.759Z,9.20
2019-03-06T20:01:32.067Z,9.48
2019-03-06T20:04:01.911Z,9.90
2019-03-06T20:06:31.303Z,10.68
2019-03-06T20:09:01.022Z,8.00
2019-03-06T20:11:30.410Z,12.65
2019-03-06T20:13:59.739Z,13.80
2019-03-06T20:16:29.433Z,11.08
2019-03-06T20:18:58.749Z,13.38
2019-03-06T20:21:28.059Z,8.90
2019-03-06T20:23:57.443Z,10.88
2019-03-06T20:26:27.534Z,9.33
2019-03-06T20:28:56.844Z,11.60
2019-03-06T20:31:27.368Z,8.60
2019-03-06T20:33:56.737Z,8.45
2019-03-06T20:36:26.405Z,8.98
2019-03-06T20:38:56.009Z,8.03
2019-03-06T20:41:25.748Z,10.88
2019-03-06T20:43:55.066Z,12.70
2019-03-06T20:46:24.422Z,10.58
2019-03-06T20:48:53.903Z,12.50
2019-03-06T20:51:23.292Z,9.68
2019-03-06T20:53:52.652Z,13.93
2019-03-06T20:56:22.452Z,10.45
2019-03-06T20:58:51.776Z,13.98
2019-03-06T21:01:21.221Z,10.53
2019-03-06T21:03:50.533Z,11.15
2019-03-06T21:06:20.108Z,15.83
2019-03-06T21:08:49.470Z,12.78
2019-03-06T21:11:19.044Z,11.70
2019-03-06T21:13:48.606Z,13.80
2019-03-06T21:16:17.973Z,12.13
2019-03-06T21:18:47.282Z,12.05
2019-03-06T21:21:16.597Z,10.40
2019-03-06T21:23:46.265Z,9.78
2019-03-06T21:26:15.632Z,9.23
2019-03-06T21:28:44.941Z,10.50
2019-03-06T21:31:14.562Z,11.80
2019-03-06T21:33:44.172Z,10.25
2019-03-06T21:36:13.480Z,13.05
2019-03-06T21:38:42.851Z,10.40
2019-03-06T21:41:12.169Z,10.55
2019-03-06T21:43:41.471Z,10.60
2019-03-06T21:46:10.825Z,8.85
2019-03-06T21:48:40.392Z,12.73
2019-03-06T21:51:09.720Z,11.88
2019-03-06T21:53:39.288Z,10.18
2019-03-06T21:56:08.827Z,9.85
2019-03-06T21:58:38.146Z,11.57
2019-03-06T22:01:07.765Z,10.90
2019-03-06T22:03:37.410Z,11.03
2019-03-06T22:06:07.018Z,9.70
2019-03-06T22:08:36.434Z,9.93
2019-03-06T22:11:06.025Z,10.70
2019-03-06T22:13:35.645Z,12.65
2019-03-06T22:16:05.011Z,12.98
2019-03-06T22:18:34.379Z,10.88
2019-03-06T22:21:03.959Z,12.65
2019-03-06T22:23:33.674Z,11.50
2019-03-06T22:26:02.980Z,12.35
2019-03-06T22:28:32.290Z,15.90
2019-03-06T22:31:02.024Z,7.65
2019-03-06T22:33:31.689Z,10.43
2019-03-06T22:36:00.998Z,11.00
2019-03-06T22:38:30.439Z,10.45
2019-03-06T22:40:59.744Z,11.15
2019-03-06T22:43:29.051Z,9.73
2019-03-06T22:46:01.472Z,8.18
2019-03-06T22:48:31.061Z,10.32
2019-03-06T22:51:00.363Z,9.43
2019-03-06T22:53:29.718Z,9.95
2019-03-06T22:55:59.034Z,11.43
2019-03-06T22:58:28.453Z,7.22
2019-03-06T23:01:03.291Z,12.60
2019-03-06T23:03:32.905Z,8.73
2019-03-06T23:06:02.211Z,9.20
2019-03-06T23:08:31.562Z,9.08
2019-03-06T23:11:00.862Z,8.20
2019-03-06T23:13:30.708Z,7.30
2019-03-06T23:16:00.062Z,9.40
2019-03-06T23:18:29.367Z,8.23
2019-03-06T23:20:58.882Z,10.98
2019-03-06T23:23:28.526Z,9.45
2019-03-06T23:26:00.726Z,9.03
2019-03-06T23:28:30.027Z,8.15
2019-03-06T23:30:59.709Z,8.58
2019-03-06T23:33:29.018Z,11.97
2019-03-06T23:35:58.629Z,8.73
2019-03-06T23:38:28.325Z,7.40
2019-03-06T23:40:57.939Z,9.35
2019-03-06T23:43:27.532Z,8.95
2019-03-06T23:45:56.894Z,8.28
2019-03-06T23:48:26.454Z,7.97
2019-03-06T23:50:56.058Z,9.53
2019-03-06T23:53:27.539Z,7.62
2019-03-06T23:55:56.840Z,7.30
2019-03-06T23:58:26.395Z,6.33
